sensor_id;sensor_type;location;lat;lon;timestamp;temperature;humidity
7117;DHT22;3600;48.568;7.870;2023-04-24T00:01:08;11.70;99.90
7117;DHT22;3600;48.568;7.870;2023-04-24T00:03:36;11.70;99.90
7117;DHT22;3600;48.568;7.870;2023-04-24T00:06:03;11.80;99.90
7117;DHT22;3600;48.568;7.870;2023-04-24T00:08:31;11.80;99.90
7117;DHT22;3600;48.568;7.870;2023-04-24T00:10:58;11.80;99.90
7117;DHT22;3600;48.568;7.870;2023-04-24T00:13:25;11.90;99.90
7117;DHT22;3600;48.568;7.870;2023-04-24T00:15:52;11.90;99.90
7117;DHT22;3600;48.568;7.870;2023-04-24T00:18:19;11.90;99.90
7117;DHT22;3600;48.568;7.870;2023-04-24T00:20:46;11.90;99.90
7117;DHT22;3600;48.568;7.870;2023-04-24T00:23:13;11.90;99.90
7117;DHT22;3600;48.568;7.870;2023-04-24T00:25:39;11.90;99.90
7117;DHT22;3600;48.568;7.870;2023-04-24T00:28:06;11.90;99.90
7117;DHT22;3600;48.568;7.870;2023-04-24T00:30:33;11.90;99.90
7117;DHT22;3600;48.568;7.870;2023-04-24T00:32:59;11.90;99.90
7117;DHT22;3600;48.568;7.870;2023-04-24T00:35:26;11.80;99.90
7117;DHT22;3600;48.568;7.870;2023-04-24T00:37:53;11.90;99.90
7117;DHT22;3600;48.568;7.870;2023-04-24T00:40:20;11.90;99.90
7117;DHT22;3600;48.568;7.870;2023-04-24T00:42:46;11.90;99.90
7117;DHT22;3600;48.568;7.870;2023-04-24T00:45:13;12.00;99.90
7117;DHT22;3600;48.568;7.870;2023-04-24T00:47:41;12.00;99.90
7117;DHT22;3600;48.568;7.870;2023-04-24T00:50:08;11.90;99.90
7117;DHT22;3600;48.568;7.870;2023-04-24T00:52:35;11.90;99.90
7117;DHT22;3600;48.568;7.870;2023-04-24T00:55:02;11.90;99.90
7117;DHT22;3600;48.568;7.870;2023-04-24T00:57:30;11.90;99.90
7117;DHT22;3600;48.568;7.870;2023-04-24T00:59:57;12.00;99.90
7117;DHT22;3600;48.568;7.870;2023-04-24T01:02:24;11.90;99.90
7117;DHT22;3600;48.568;7.870;2023-04-24T01:04:52;11.90;99.90
7117;DHT22;3600;48.568;7.870;2023-04-24T01:07:20;11.90;99.90
7117;DHT22;3600;48.568;7.870;2023-04-24T01:09:48;11.90;99.90
7117;DHT22;3600;48.568;7.870;2023-04-24T01:12:18;11.90;99.90
7117;DHT22;3600;48.568;7.870;2023-04-24T01:14:46;11.90;99.90
7117;DHT22;3600;48.568;7.870;2023-04-24T01:17:12;11.90;99.90
7117;DHT22;3600;48.568;7.870;2023-04-24T01:19:39;11.90;99.90
7117;DHT22;3600;48.568;7.870;2023-04-24T01:22:10;11.90;99.90
7117;DHT22;3600;48.568;7.870;2023-04-24T01:24:38;11.90;99.90
7117;DHT22;3600;48.568;7.870;2023-04-24T01:27:05;11.90;99.90
7117;DHT22;3600;48.568;7.870;2023-04-24T01:29:32;11.90;99.90
7117;DHT22;3600;48.568;7.870;2023-04-24T01:31:59;11.90;99.90
7117;DHT22;3600;48.568;7.870;2023-04-24T01:34:27;11.90;99.90
7117;DHT22;3600;48.568;7.870;2023-04-24T01:36:55;11.80;99.90
7117;DHT22;3600;48.568;7.870;2023-04-24T01:39:23;11.80;99.90
7117;DHT22;3600;48.568;7.870;2023-04-24T01:41:52;11.80;99.90
7117;DHT22;3600;48.568;7.870;2023-04-24T01:44:20;11.80;99.90
7117;DHT22;3600;48.568;7.870;2023-04-24T01:46:47;11.80;99.90
7117;DHT22;3600;48.568;7.870;2023-04-24T01:49:14;11.80;99.90
7117;DHT22;3600;48.568;7.870;2023-04-24T01:51:42;11.80;99.90
7117;DHT22;3600;48.568;7.870;2023-04-24T01:54:08;11.80;99.90
7117;DHT22;3600;48.568;7.870;2023-04-24T01:56:36;11.80;99.90
7117;DHT22;3600;48.568;7.870;2023-04-24T01:59:05;11.80;99.90
7117;DHT22;3600;48.568;7.870;2023-04-24T02:01:36;11.80;99.90
7117;DHT22;3600;48.568;7.870;2023-04-24T02:04:04;11.70;99.90
7117;DHT22;3600;48.568;7.870;2023-04-24T02:06:31;11.70;99.90
7117;DHT22;3600;48.568;7.870;2023-04-24T02:08:59;11.70;99.90
7117;DHT22;3600;48.568;7.870;2023-04-24T02:11:26;11.70;99.90
7117;DHT22;3600;48.568;7.870;2023-04-24T02:13:53;11.70;99.90
7117;DHT22;3600;48.568;7.870;2023-04-24T02:16:20;11.70;99.90
7117;DHT22;3600;48.568;7.870;2023-04-24T02:18:47;11.60;99.90
7117;DHT22;3600;48.568;7.870;2023-04-24T02:21:14;11.70;99.90
7117;DHT22;3600;48.568;7.870;2023-04-24T02:23:41;11.70;99.90
7117;DHT22;3600;48.568;7.870;2023-04-24T02:26:08;11.70;99.90
7117;DHT22;3600;48.568;7.870;2023-04-24T02:28:35;11.70;99.90
7117;DHT22;3600;48.568;7.870;2023-04-24T02:31:01;11.70;99.90
7117;DHT22;3600;48.568;7.870;2023-04-24T02:33:28;11.70;99.90
7117;DHT22;3600;48.568;7.870;2023-04-24T02:35:55;11.60;99.90
7117;DHT22;3600;48.568;7.870;2023-04-24T02:38:22;11.70;99.90
7117;DHT22;3600;48.568;7.870;2023-04-24T02:40:48;11.70;99.90
7117;DHT22;3600;48.568;7.870;2023-04-24T02:43:15;11.70;99.90
7117;DHT22;3600;48.568;7.870;2023-04-24T02:45:42;11.70;99.90
7117;DHT22;3600;48.568;7.870;2023-04-24T02:48:09;11.70;99.90
7117;DHT22;3600;48.568;7.870;2023-04-24T02:50:35;11.60;99.90
7117;DHT22;3600;48.568;7.870;2023-04-24T02:53:02;11.70;99.90
7117;DHT22;3600;48.568;7.870;2023-04-24T02:55:29;11.60;99.90
7117;DHT22;3600;48.568;7.870;2023-04-24T02:57:56;11.60;99.90
7117;DHT22;3600;48.568;7.870;2023-04-24T03:00:23;11.60;99.90
7117;DHT22;3600;48.568;7.870;2023-04-24T03:02:50;11.60;99.90
7117;DHT22;3600;48.568;7.870;2023-04-24T03:05:17;11.60;99.90
7117;DHT22;3600;48.568;7.870;2023-04-24T03:07:44;11.60;99.90
7117;DHT22;3600;48.568;7.870;2023-04-24T03:10:11;11.50;99.90
7117;DHT22;3600;48.568;7.870;2023-04-24T03:12:38;11.50;99.90
7117;DHT22;3600;48.568;7.870;2023-04-24T03:15:06;11.50;99.90
7117;DHT22;3600;48.568;7.870;2023-04-24T03:17:33;11.40;99.90
7117;DHT22;3600;48.568;7.870;2023-04-24T03:20:00;11.40;99.90
7117;DHT22;3600;48.568;7.870;2023-04-24T03:22:26;11.50;99.90
7117;DHT22;3600;48.568;7.870;2023-04-24T03:24:53;11.50;99.90
7117;DHT22;3600;48.568;7.870;2023-04-24T03:27:21;11.50;99.90
7117;DHT22;3600;48.568;7.870;2023-04-24T03:29:48;11.50;99.90
7117;DHT22;3600;48.568;7.870;2023-04-24T03:32:18;11.60;99.90
7117;DHT22;3600;48.568;7.870;2023-04-24T03:34:44;11.50;99.90
7117;DHT22;3600;48.568;7.870;2023-04-24T03:37:11;11.50;99.90
7117;DHT22;3600;48.568;7.870;2023-04-24T03:39:38;11.50;99.90
7117;DHT22;3600;48.568;7.870;2023-04-24T03:42:04;11.50;99.90
7117;DHT22;3600;48.568;7.870;2023-04-24T03:44:31;11.50;99.90
7117;DHT22;3600;48.568;7.870;2023-04-24T03:46:58;11.50;99.90
7117;DHT22;3600;48.568;7.870;2023-04-24T03:49:25;11.40;99.90
7117;DHT22;3600;48.568;7.870;2023-04-24T03:51:52;11.50;99.90
7117;DHT22;3600;48.568;7.870;2023-04-24T03:54:19;11.40;99.90
7117;DHT22;3600;48.568;7.870;2023-04-24T03:56:46;11.30;99.90
7117;DHT22;3600;48.568;7.870;2023-04-24T03:59:13;11.20;99.90
7117;DHT22;3600;48.568;7.870;2023-04-24T04:01:40;11.30;99.90
7117;DHT22;3600;48.568;7.870;2023-04-24T04:04:09;11.30;99.90
7117;DHT22;3600;48.568;7.870;2023-04-24T04:06:36;11.30;99.90
7117;DHT22;3600;48.568;7.870;2023-04-24T04:09:03;11.20;99.90
7117;DHT22;3600;48.568;7.870;2023-04-24T04:11:30;10.90;99.90
7117;DHT22;3600;48.568;7.870;2023-04-24T04:13:57;10.80;99.90
7117;DHT22;3600;48.568;7.870;2023-04-24T04:16:23;10.60;99.90
7117;DHT22;3600;48.568;7.870;2023-04-24T04:18:51;10.60;99.90
7117;DHT22;3600;48.568;7.870;2023-04-24T04:21:17;10.50;99.90
7117;DHT22;3600;48.568;7.870;2023-04-24T04:23:44;10.60;99.90
7117;DHT22;3600;48.568;7.870;2023-04-24T04:26:12;10.70;99.90
7117;DHT22;3600;48.568;7.870;2023-04-24T04:28:39;10.70;99.90
7117;DHT22;3600;48.568;7.870;2023-04-24T04:31:06;10.70;99.90
7117;DHT22;3600;48.568;7.870;2023-04-24T04:33:34;10.70;99.90
7117;DHT22;3600;48.568;7.870;2023-04-24T04:36:02;10.80;99.90
7117;DHT22;3600;48.568;7.870;2023-04-24T04:38:30;10.80;99.90
7117;DHT22;3600;48.568;7.870;2023-04-24T04:40:57;10.70;99.90
7117;DHT22;3600;48.568;7.870;2023-04-24T04:43:24;10.80;99.90
7117;DHT22;3600;48.568;7.870;2023-04-24T04:45:52;10.80;99.90
7117;DHT22;3600;48.568;7.870;2023-04-24T04:48:21;10.90;99.90
7117;DHT22;3600;48.568;7.870;2023-04-24T04:50:48;10.80;99.90
7117;DHT22;3600;48.568;7.870;2023-04-24T04:53:15;10.80;99.90
7117;DHT22;3600;48.568;7.870;2023-04-24T04:55:42;10.90;99.90
7117;DHT22;3600;48.568;7.870;2023-04-24T04:58:09;10.90;99.90
7117;DHT22;3600;48.568;7.870;2023-04-24T05:00:36;10.90;99.90
7117;DHT22;3600;48.568;7.870;2023-04-24T05:03:04;10.90;99.90
7117;DHT22;3600;48.568;7.870;2023-04-24T05:05:46;10.90;99.90
7117;DHT22;3600;48.568;7.870;2023-04-24T05:08:13;11.00;99.90
7117;DHT22;3600;48.568;7.870;2023-04-24T05:10:53;11.00;99.90
7117;DHT22;3600;48.568;7.870;2023-04-24T05:13:19;11.00;99.90
7117;DHT22;3600;48.568;7.870;2023-04-24T05:15:57;11.10;99.90
7117;DHT22;3600;48.568;7.870;2023-04-24T05:18:24;11.00;99.90
7117;DHT22;3600;48.568;7.870;2023-04-24T05:20:51;11.00;99.90
7117;DHT22;3600;48.568;7.870;2023-04-24T05:23:18;11.00;99.90
7117;DHT22;3600;48.568;7.870;2023-04-24T05:25:45;11.00;99.90
7117;DHT22;3600;48.568;7.870;2023-04-24T05:28:12;11.00;99.90
7117;DHT22;3600;48.568;7.870;2023-04-24T05:30:39;10.90;99.90
7117;DHT22;3600;48.568;7.870;2023-04-24T05:33:06;10.90;99.90
7117;DHT22;3600;48.568;7.870;2023-04-24T05:35:33;10.90;99.90
7117;DHT22;3600;48.568;7.870;2023-04-24T05:37:59;10.90;99.90
7117;DHT22;3600;48.568;7.870;2023-04-24T05:40:26;10.90;99.90
7117;DHT22;3600;48.568;7.870;2023-04-24T05:42:53;10.80;99.90
7117;DHT22;3600;48.568;7.870;2023-04-24T05:45:19;10.80;99.90
7117;DHT22;3600;48.568;7.870;2023-04-24T05:47:46;10.80;99.90
7117;DHT22;3600;48.568;7.870;2023-04-24T05:50:13;10.70;99.90
7117;DHT22;3600;48.568;7.870;2023-04-24T05:52:40;10.80;99.90
7117;DHT22;3600;48.568;7.870;2023-04-24T05:55:07;10.80;99.90
7117;DHT22;3600;48.568;7.870;2023-04-24T05:57:35;10.70;99.90
7117;DHT22;3600;48.568;7.870;2023-04-24T06:00:02;10.70;99.90
7117;DHT22;3600;48.568;7.870;2023-04-24T06:02:29;10.70;99.90
7117;DHT22;3600;48.568;7.870;2023-04-24T06:04:59;10.70;99.90
7117;DHT22;3600;48.568;7.870;2023-04-24T06:07:26;10.70;99.90
7117;DHT22;3600;48.568;7.870;2023-04-24T06:09:53;10.70;99.90
7117;DHT22;3600;48.568;7.870;2023-04-24T06:12:19;10.70;99.90
7117;DHT22;3600;48.568;7.870;2023-04-24T06:14:46;10.70;99.90
7117;DHT22;3600;48.568;7.870;2023-04-24T06:17:13;10.70;99.90
7117;DHT22;3600;48.568;7.870;2023-04-24T06:19:40;10.60;99.90
7117;DHT22;3600;48.568;7.870;2023-04-24T06:22:07;10.70;99.90
7117;DHT22;3600;48.568;7.870;2023-04-24T06:24:36;10.70;99.90
7117;DHT22;3600;48.568;7.870;2023-04-24T06:27:03;10.80;99.90
7117;DHT22;3600;48.568;7.870;2023-04-24T06:29:30;10.80;99.90
7117;DHT22;3600;48.568;7.870;2023-04-24T06:31:56;10.80;99.90
7117;DHT22;3600;48.568;7.870;2023-04-24T06:34:23;10.90;99.90
7117;DHT22;3600;48.568;7.870;2023-04-24T06:36:50;10.90;99.90
7117;DHT22;3600;48.568;7.870;2023-04-24T06:39:17;10.90;99.90
7117;DHT22;3600;48.568;7.870;2023-04-24T06:41:44;10.90;99.90
7117;DHT22;3600;48.568;7.870;2023-04-24T06:44:10;11.00;99.90
7117;DHT22;3600;48.568;7.870;2023-04-24T06:46:37;11.00;99.90
7117;DHT22;3600;48.568;7.870;2023-04-24T06:49:07;11.10;99.90
7117;DHT22;3600;48.568;7.870;2023-04-24T06:51:33;11.30;99.90
7117;DHT22;3600;48.568;7.870;2023-04-24T06:54:00;11.40;99.90
7117;DHT22;3600;48.568;7.870;2023-04-24T06:56:28;11.40;99.90
7117;DHT22;3600;48.568;7.870;2023-04-24T06:58:56;11.50;99.90
7117;DHT22;3600;48.568;7.870;2023-04-24T07:01:22;11.60;99.90
7117;DHT22;3600;48.568;7.870;2023-04-24T07:03:49;11.60;99.90
7117;DHT22;3600;48.568;7.870;2023-04-24T07:06:16;11.70;99.90
7117;DHT22;3600;48.568;7.870;2023-04-24T07:08:45;11.70;99.90
7117;DHT22;3600;48.568;7.870;2023-04-24T07:11:12;11.60;99.90
7117;DHT22;3600;48.568;7.870;2023-04-24T07:13:39;11.60;99.90
7117;DHT22;3600;48.568;7.870;2023-04-24T07:16:08;11.60;99.90
7117;DHT22;3600;48.568;7.870;2023-04-24T07:18:36;11.60;99.90
7117;DHT22;3600;48.568;7.870;2023-04-24T07:21:03;11.60;99.90
7117;DHT22;3600;48.568;7.870;2023-04-24T07:23:31;11.60;99.90
7117;DHT22;3600;48.568;7.870;2023-04-24T07:25:57;11.60;99.90
7117;DHT22;3600;48.568;7.870;2023-04-24T07:28:24;11.60;99.90
7117;DHT22;3600;48.568;7.870;2023-04-24T07:30:52;11.50;99.90
7117;DHT22;3600;48.568;7.870;2023-04-24T07:33:20;11.50;99.90
7117;DHT22;3600;48.568;7.870;2023-04-24T07:35:47;11.50;99.90
7117;DHT22;3600;48.568;7.870;2023-04-24T07:38:14;11.40;99.90
7117;DHT22;3600;48.568;7.870;2023-04-24T07:40:41;11.30;99.90
7117;DHT22;3600;48.568;7.870;2023-04-24T07:43:08;11.20;99.90
7117;DHT22;3600;48.568;7.870;2023-04-24T07:45:35;11.20;99.90
7117;DHT22;3600;48.568;7.870;2023-04-24T07:48:04;11.10;99.90
7117;DHT22;3600;48.568;7.870;2023-04-24T07:50:31;11.20;99.90
7117;DHT22;3600;48.568;7.870;2023-04-24T07:52:58;11.20;99.90
7117;DHT22;3600;48.568;7.870;2023-04-24T07:55:25;11.30;99.90
7117;DHT22;3600;48.568;7.870;2023-04-24T07:57:53;11.30;99.90
7117;DHT22;3600;48.568;7.870;2023-04-24T08:00:21;11.40;99.90
7117;DHT22;3600;48.568;7.870;2023-04-24T08:02:47;11.40;99.90
7117;DHT22;3600;48.568;7.870;2023-04-24T08:05:15;11.40;99.90
7117;DHT22;3600;48.568;7.870;2023-04-24T08:07:42;11.30;99.70
7117;DHT22;3600;48.568;7.870;2023-04-24T08:10:12;11.30;99.20
7117;DHT22;3600;48.568;7.870;2023-04-24T08:12:38;11.20;98.80
7117;DHT22;3600;48.568;7.870;2023-04-24T08:15:06;11.20;99.40
7117;DHT22;3600;48.568;7.870;2023-04-24T08:17:34;11.20;99.60
7117;DHT22;3600;48.568;7.870;2023-04-24T08:20:05;11.20;99.20
7117;DHT22;3600;48.568;7.870;2023-04-24T08:22:32;11.20;99.10
7117;DHT22;3600;48.568;7.870;2023-04-24T08:25:00;11.20;98.80
7117;DHT22;3600;48.568;7.870;2023-04-24T08:27:27;11.20;99.80
7117;DHT22;3600;48.568;7.870;2023-04-24T08:29:54;11.30;99.20
7117;DHT22;3600;48.568;7.870;2023-04-24T08:32:20;11.30;99.80
7117;DHT22;3600;48.568;7.870;2023-04-24T08:34:47;11.30;99.70
7117;DHT22;3600;48.568;7.870;2023-04-24T08:37:15;11.30;99.60
7117;DHT22;3600;48.568;7.870;2023-04-24T08:39:42;11.30;99.50
7117;DHT22;3600;48.568;7.870;2023-04-24T08:42:11;11.40;99.90
7117;DHT22;3600;48.568;7.870;2023-04-24T08:44:38;11.40;99.70
7117;DHT22;3600;48.568;7.870;2023-04-24T08:47:05;11.50;99.70
7117;DHT22;3600;48.568;7.870;2023-04-24T08:49:33;11.40;99.80
7117;DHT22;3600;48.568;7.870;2023-04-24T08:52:00;11.30;99.40
7117;DHT22;3600;48.568;7.870;2023-04-24T08:54:28;11.40;99.90
7117;DHT22;3600;48.568;7.870;2023-04-24T08:56:59;11.40;99.90
7117;DHT22;3600;48.568;7.870;2023-04-24T08:59:31;11.50;99.90
7117;DHT22;3600;48.568;7.870;2023-04-24T09:01:58;11.40;99.90
7117;DHT22;3600;48.568;7.870;2023-04-24T09:04:26;11.50;99.90
7117;DHT22;3600;48.568;7.870;2023-04-24T09:06:56;11.60;99.90
7117;DHT22;3600;48.568;7.870;2023-04-24T09:09:24;11.50;99.90
7117;DHT22;3600;48.568;7.870;2023-04-24T09:11:52;11.50;99.90
7117;DHT22;3600;48.568;7.870;2023-04-24T09:14:21;11.60;99.90
7117;DHT22;3600;48.568;7.870;2023-04-24T09:16:50;11.50;99.90
7117;DHT22;3600;48.568;7.870;2023-04-24T09:19:17;11.60;99.90
7117;DHT22;3600;48.568;7.870;2023-04-24T09:21:47;11.70;99.90
7117;DHT22;3600;48.568;7.870;2023-04-24T09:24:19;11.60;99.90
7117;DHT22;3600;48.568;7.870;2023-04-24T09:26:55;11.60;99.90
7117;DHT22;3600;48.568;7.870;2023-04-24T09:29:23;11.70;99.90
7117;DHT22;3600;48.568;7.870;2023-04-24T09:31:50;11.70;99.90
7117;DHT22;3600;48.568;7.870;2023-04-24T09:34:26;11.70;99.90
7117;DHT22;3600;48.568;7.870;2023-04-24T09:36:53;11.70;99.90
7117;DHT22;3600;48.568;7.870;2023-04-24T09:39:20;11.70;99.90
7117;DHT22;3600;48.568;7.870;2023-04-24T09:44:20;11.60;99.90
7117;DHT22;3600;48.568;7.870;2023-04-24T09:46:59;11.60;99.90
7117;DHT22;3600;48.568;7.870;2023-04-24T09:49:30;11.40;99.90
7117;DHT22;3600;48.568;7.870;2023-04-24T09:52:07;11.30;99.90
7117;DHT22;3600;48.568;7.870;2023-04-24T09:54:35;11.40;99.90
7117;DHT22;3600;48.568;7.870;2023-04-24T09:57:03;11.50;99.90
7117;DHT22;3600;48.568;7.870;2023-04-24T09:59:32;11.70;99.90
7117;DHT22;3600;48.568;7.870;2023-04-24T10:02:01;11.80;99.90
7117;DHT22;3600;48.568;7.870;2023-04-24T10:04:29;11.70;99.90
7117;DHT22;3600;48.568;7.870;2023-04-24T10:06:57;11.80;99.90
7117;DHT22;3600;48.568;7.870;2023-04-24T10:09:25;11.90;99.90
7117;DHT22;3600;48.568;7.870;2023-04-24T10:11:54;11.90;99.90
7117;DHT22;3600;48.568;7.870;2023-04-24T10:14:23;12.00;99.90
7117;DHT22;3600;48.568;7.870;2023-04-24T10:16:55;12.10;99.90
7117;DHT22;3600;48.568;7.870;2023-04-24T10:19:25;12.30;99.90
7117;DHT22;3600;48.568;7.870;2023-04-24T10:21:52;12.30;99.90
7117;DHT22;3600;48.568;7.870;2023-04-24T10:24:21;12.20;99.90
7117;DHT22;3600;48.568;7.870;2023-04-24T10:26:48;12.20;99.90
7117;DHT22;3600;48.568;7.870;2023-04-24T10:29:17;12.30;99.90
7117;DHT22;3600;48.568;7.870;2023-04-24T10:31:44;12.30;99.90
7117;DHT22;3600;48.568;7.870;2023-04-24T10:34:13;12.30;99.90
7117;DHT22;3600;48.568;7.870;2023-04-24T10:36:44;12.30;99.90
7117;DHT22;3600;48.568;7.870;2023-04-24T10:39:13;12.30;99.90
7117;DHT22;3600;48.568;7.870;2023-04-24T10:41:44;12.30;99.80
7117;DHT22;3600;48.568;7.870;2023-04-24T10:44:16;12.40;99.90
7117;DHT22;3600;48.568;7.870;2023-04-24T10:46:45;12.50;99.90
7117;DHT22;3600;48.568;7.870;2023-04-24T10:49:12;12.50;99.90
7117;DHT22;3600;48.568;7.870;2023-04-24T10:51:52;12.40;99.80
7117;DHT22;3600;48.568;7.870;2023-04-24T10:54:27;12.40;99.90
7117;DHT22;3600;48.568;7.870;2023-04-24T10:59:51;12.40;99.90
7117;DHT22;3600;48.568;7.870;2023-04-24T11:02:19;12.50;99.90
7117;DHT22;3600;48.568;7.870;2023-04-24T11:05:06;12.70;99.90
7117;DHT22;3600;48.568;7.870;2023-04-24T11:08:10;12.90;99.90
7117;DHT22;3600;48.568;7.870;2023-04-24T11:10:47;12.90;98.80
7117;DHT22;3600;48.568;7.870;2023-04-24T11:13:29;13.10;99.60
7117;DHT22;3600;48.568;7.870;2023-04-24T11:18:42;13.00;99.00
7117;DHT22;3600;48.568;7.870;2023-04-24T11:21:12;13.20;99.30
7117;DHT22;3600;48.568;7.870;2023-04-24T11:23:40;13.20;99.00
7117;DHT22;3600;48.568;7.870;2023-04-24T11:26:23;13.30;99.00
7117;DHT22;3600;48.568;7.870;2023-04-24T11:29:08;13.20;98.70
7117;DHT22;3600;48.568;7.870;2023-04-24T11:31:44;13.10;98.90
7117;DHT22;3600;48.568;7.870;2023-04-24T11:34:16;13.00;99.20
7117;DHT22;3600;48.568;7.870;2023-04-24T11:36:44;13.00;99.90
7117;DHT22;3600;48.568;7.870;2023-04-24T11:39:12;12.90;99.90
7117;DHT22;3600;48.568;7.870;2023-04-24T11:41:39;12.90;99.90
7117;DHT22;3600;48.568;7.870;2023-04-24T11:44:07;12.80;99.90
7117;DHT22;3600;48.568;7.870;2023-04-24T11:46:34;12.80;99.90
7117;DHT22;3600;48.568;7.870;2023-04-24T11:49:01;12.60;99.90
7117;DHT22;3600;48.568;7.870;2023-04-24T11:51:28;12.60;99.90
7117;DHT22;3600;48.568;7.870;2023-04-24T11:54:07;12.70;99.90
7117;DHT22;3600;48.568;7.870;2023-04-24T11:56:34;12.70;99.90
7117;DHT22;3600;48.568;7.870;2023-04-24T11:59:04;12.70;99.90
7117;DHT22;3600;48.568;7.870;2023-04-24T12:01:45;12.70;99.90
7117;DHT22;3600;48.568;7.870;2023-04-24T12:04:13;12.70;99.90
7117;DHT22;3600;48.568;7.870;2023-04-24T12:06:59;12.70;99.90
7117;DHT22;3600;48.568;7.870;2023-04-24T12:09:26;12.70;99.90
7117;DHT22;3600;48.568;7.870;2023-04-24T12:11:54;12.60;99.90
7117;DHT22;3600;48.568;7.870;2023-04-24T12:14:24;12.70;99.90
7117;DHT22;3600;48.568;7.870;2023-04-24T12:16:51;12.70;99.90
7117;DHT22;3600;48.568;7.870;2023-04-24T12:19:22;12.60;99.90
7117;DHT22;3600;48.568;7.870;2023-04-24T12:22:05;12.50;99.90
7117;DHT22;3600;48.568;7.870;2023-04-24T12:24:32;12.50;99.90
7117;DHT22;3600;48.568;7.870;2023-04-24T12:26:59;12.50;99.90
7117;DHT22;3600;48.568;7.870;2023-04-24T12:29:28;12.50;99.90
7117;DHT22;3600;48.568;7.870;2023-04-24T12:31:54;12.50;99.90
7117;DHT22;3600;48.568;7.870;2023-04-24T12:34:23;12.50;99.90
7117;DHT22;3600;48.568;7.870;2023-04-24T12:36:51;12.50;99.90
7117;DHT22;3600;48.568;7.870;2023-04-24T12:39:19;12.50;99.90
7117;DHT22;3600;48.568;7.870;2023-04-24T12:41:56;12.50;99.90
7117;DHT22;3600;48.568;7.870;2023-04-24T12:44:33;12.50;99.90
7117;DHT22;3600;48.568;7.870;2023-04-24T12:47:01;12.40;99.90
7117;DHT22;3600;48.568;7.870;2023-04-24T12:49:30;12.40;99.90
7117;DHT22;3600;48.568;7.870;2023-04-24T12:51:57;12.50;99.90
7117;DHT22;3600;48.568;7.870;2023-04-24T12:54:24;12.50;99.80
7117;DHT22;3600;48.568;7.870;2023-04-24T12:56:51;12.60;99.90
7117;DHT22;3600;48.568;7.870;2023-04-24T12:59:18;12.60;99.90
7117;DHT22;3600;48.568;7.870;2023-04-24T13:01:44;12.60;99.90
7117;DHT22;3600;48.568;7.870;2023-04-24T13:04:11;12.70;99.90
7117;DHT22;3600;48.568;7.870;2023-04-24T13:06:38;12.60;99.50
7117;DHT22;3600;48.568;7.870;2023-04-24T13:09:05;12.60;99.90
7117;DHT22;3600;48.568;7.870;2023-04-24T13:11:32;12.60;99.90
7117;DHT22;3600;48.568;7.870;2023-04-24T13:13:58;12.60;99.90
7117;DHT22;3600;48.568;7.870;2023-04-24T13:16:25;12.60;99.90
7117;DHT22;3600;48.568;7.870;2023-04-24T13:18:52;12.50;99.90
7117;DHT22;3600;48.568;7.870;2023-04-24T13:21:19;12.40;99.90
7117;DHT22;3600;48.568;7.870;2023-04-24T13:23:46;12.30;99.90
7117;DHT22;3600;48.568;7.870;2023-04-24T13:26:12;12.30;99.90
7117;DHT22;3600;48.568;7.870;2023-04-24T13:28:39;12.40;99.90
7117;DHT22;3600;48.568;7.870;2023-04-24T13:31:06;12.40;99.50
7117;DHT22;3600;48.568;7.870;2023-04-24T13:33:33;12.50;99.40
7117;DHT22;3600;48.568;7.870;2023-04-24T13:35:59;12.50;99.50
7117;DHT22;3600;48.568;7.870;2023-04-24T13:38:26;12.50;99.40
7117;DHT22;3600;48.568;7.870;2023-04-24T13:40:53;12.50;99.20
7117;DHT22;3600;48.568;7.870;2023-04-24T13:43:19;12.60;99.30
7117;DHT22;3600;48.568;7.870;2023-04-24T13:45:46;12.70;99.10
7117;DHT22;3600;48.568;7.870;2023-04-24T13:48:13;12.70;98.60
7117;DHT22;3600;48.568;7.870;2023-04-24T13:50:42;12.80;99.10
7117;DHT22;3600;48.568;7.870;2023-04-24T13:53:09;12.90;98.70
7117;DHT22;3600;48.568;7.870;2023-04-24T13:55:36;13.00;98.40
7117;DHT22;3600;48.568;7.870;2023-04-24T13:58:03;13.20;98.10
7117;DHT22;3600;48.568;7.870;2023-04-24T14:00:30;13.30;98.20
7117;DHT22;3600;48.568;7.870;2023-04-24T14:02:57;13.40;98.40
7117;DHT22;3600;48.568;7.870;2023-04-24T14:05:24;13.50;98.10
7117;DHT22;3600;48.568;7.870;2023-04-24T14:07:51;13.50;98.10
7117;DHT22;3600;48.568;7.870;2023-04-24T14:10:18;13.60;98.40
7117;DHT22;3600;48.568;7.870;2023-04-24T14:12:45;13.70;98.00
7117;DHT22;3600;48.568;7.870;2023-04-24T14:15:12;13.70;97.90
7117;DHT22;3600;48.568;7.870;2023-04-24T14:17:40;13.70;98.30
7117;DHT22;3600;48.568;7.870;2023-04-24T14:20:07;13.90;98.40
7117;DHT22;3600;48.568;7.870;2023-04-24T14:22:34;14.00;97.50
7117;DHT22;3600;48.568;7.870;2023-04-24T14:25:01;14.20;97.20
7117;DHT22;3600;48.568;7.870;2023-04-24T14:27:27;14.30;96.00
7117;DHT22;3600;48.568;7.870;2023-04-24T14:29:54;14.30;95.80
7117;DHT22;3600;48.568;7.870;2023-04-24T14:32:21;14.30;95.50
7117;DHT22;3600;48.568;7.870;2023-04-24T14:34:48;14.40;95.20
7117;DHT22;3600;48.568;7.870;2023-04-24T14:37:15;14.40;95.30
7117;DHT22;3600;48.568;7.870;2023-04-24T14:39:42;14.30;94.80
7117;DHT22;3600;48.568;7.870;2023-04-24T14:42:13;14.20;95.20
7117;DHT22;3600;48.568;7.870;2023-04-24T14:44:40;14.20;95.60
7117;DHT22;3600;48.568;7.870;2023-04-24T14:47:06;14.00;95.40
7117;DHT22;3600;48.568;7.870;2023-04-24T14:49:33;14.00;95.60
7117;DHT22;3600;48.568;7.870;2023-04-24T14:52:00;13.90;95.60
7117;DHT22;3600;48.568;7.870;2023-04-24T14:54:29;13.80;95.20
7117;DHT22;3600;48.568;7.870;2023-04-24T14:56:56;13.80;95.50
7117;DHT22;3600;48.568;7.870;2023-04-24T14:59:28;13.80;95.60
7117;DHT22;3600;48.568;7.870;2023-04-24T15:01:55;13.70;96.50
7117;DHT22;3600;48.568;7.870;2023-04-24T15:04:41;13.60;97.50
7117;DHT22;3600;48.568;7.870;2023-04-24T15:07:08;13.40;98.80
7117;DHT22;3600;48.568;7.870;2023-04-24T15:09:35;13.20;98.90
7117;DHT22;3600;48.568;7.870;2023-04-24T15:12:01;13.40;99.70
7117;DHT22;3600;48.568;7.870;2023-04-24T15:14:28;13.40;99.00
7117;DHT22;3600;48.568;7.870;2023-04-24T15:16:55;13.40;99.50
7117;DHT22;3600;48.568;7.870;2023-04-24T15:19:22;13.50;99.40
7117;DHT22;3600;48.568;7.870;2023-04-24T15:21:49;13.50;99.60
7117;DHT22;3600;48.568;7.870;2023-04-24T15:24:15;13.60;99.10
7117;DHT22;3600;48.568;7.870;2023-04-24T15:26:42;13.70;98.80
7117;DHT22;3600;48.568;7.870;2023-04-24T15:29:09;13.90;98.80
7117;DHT22;3600;48.568;7.870;2023-04-24T15:31:36;14.00;97.90
7117;DHT22;3600;48.568;7.870;2023-04-24T15:34:06;13.90;98.10
7117;DHT22;3600;48.568;7.870;2023-04-24T15:36:33;14.00;98.40
7117;DHT22;3600;48.568;7.870;2023-04-24T15:39:01;14.20;97.40
7117;DHT22;3600;48.568;7.870;2023-04-24T15:41:31;14.30;97.00
7117;DHT22;3600;48.568;7.870;2023-04-24T15:43:58;14.40;97.30
7117;DHT22;3600;48.568;7.870;2023-04-24T15:46:25;14.20;97.50
7117;DHT22;3600;48.568;7.870;2023-04-24T15:48:52;14.20;97.50
7117;DHT22;3600;48.568;7.870;2023-04-24T15:51:19;14.30;97.50
7117;DHT22;3600;48.568;7.870;2023-04-24T15:53:46;14.40;98.20
7117;DHT22;3600;48.568;7.870;2023-04-24T15:56:13;14.30;99.20
7117;DHT22;3600;48.568;7.870;2023-04-24T15:58:40;14.00;99.80
7117;DHT22;3600;48.568;7.870;2023-04-24T16:01:06;13.90;99.90
7117;DHT22;3600;48.568;7.870;2023-04-24T16:03:33;13.80;99.90
7117;DHT22;3600;48.568;7.870;2023-04-24T16:06:00;13.50;99.90
7117;DHT22;3600;48.568;7.870;2023-04-24T16:08:27;13.40;99.90
7117;DHT22;3600;48.568;7.870;2023-04-24T16:10:54;13.40;99.90
7117;DHT22;3600;48.568;7.870;2023-04-24T16:13:20;13.30;99.90
7117;DHT22;3600;48.568;7.870;2023-04-24T16:15:47;13.40;99.90